Time;durP1;ratioP1;P1;durP2;ratioP2;P2;SDS_P1;SDS_P2;PMS_P1;PMS_P2;Temp;Humidity;BMP_temperature;BMP_pressure;BME280_temperature;BME280_humidity;BME280_pressure;Samples;Min_cycle;Max_cycle;Signal;HPM_P1;HPM_P2
2023/12/18 00:02:03;;;;;;;6.00;4.50;;;;;;;4.17;96.01;99974.83;107272;1257;72774;-40
2023/12/18 00:04:31;;;;;;;5.70;4.90;;;;;;;4.20;95.97;99968.16;107273;1258;62061;-40
2023/12/18 00:06:58;;;;;;;6.50;5.30;;;;;;;4.18;95.85;99954.02;107620;1253;60361;-40
2023/12/18 00:09:26;;;;;;;6.70;5.10;;;;;;;4.13;96.38;99961.15;107615;1252;72632;-40
2023/12/18 00:11:53;;;;;;;6.20;4.90;;;;;;;4.14;96.40;99969.67;107645;1255;67638;-40
2023/12/18 00:14:21;;;;;;;6.40;4.80;;;;;;;4.19;96.12;99971.17;107602;1256;71023;-41
2023/12/18 00:16:48;;;;;;;6.70;4.50;;;;;;;4.21;96.12;99971.84;107636;1257;60447;-40
2023/12/18 00:19:16;;;;;;;7.00;5.40;;;;;;;4.19;96.20;99971.06;107652;1254;60444;-40
2023/12/18 00:21:44;;;;;;;6.80;4.60;;;;;;;4.19;96.22;99968.22;107700;1255;73833;-40
2023/12/18 00:24:11;;;;;;;6.80;5.10;;;;;;;4.23;95.93;99953.69;107643;1257;67860;-41
2023/12/18 00:26:39;;;;;;;7.70;6.00;;;;;;;4.26;95.52;99947.19;107496;1260;72715;-40
2023/12/18 00:29:06;;;;;;;9.00;5.70;;;;;;;4.23;95.28;99941.30;107515;1260;60440;-40
2023/12/18 00:31:34;;;;;;;7.60;5.90;;;;;;;4.17;95.08;99937.90;107503;1258;60110;-40
2023/12/18 00:34:02;;;;;;;9.10;6.20;;;;;;;4.14;95.03;99935.80;107522;1254;72729;-39
2023/12/18 00:36:30;;;;;;;8.60;6.10;;;;;;;4.17;94.95;99930.21;107487;1259;67624;-40
2023/12/18 00:38:57;;;;;;;9.90;7.20;;;;;;;4.17;95.04;99935.81;107494;1254;72722;-40
2023/12/18 00:41:25;;;;;;;10.20;7.60;;;;;;;4.13;95.27;99944.89;107510;1259;60251;-39
2023/12/18 00:43:52;;;;;;;11.10;7.90;;;;;;;4.11;95.79;99944.38;107487;1259;60448;-40
2023/12/18 00:46:20;;;;;;;12.40;7.70;;;;;;;4.14;96.14;99942.09;107685;1252;72645;-39
2023/12/18 00:48:48;;;;;;;11.60;8.60;;;;;;;4.21;96.29;99939.31;107584;1254;66273;-40
2023/12/18 00:51:15;;;;;;;12.20;8.30;;;;;;;4.23;96.35;99939.25;107598;1254;71672;-40
2023/12/18 00:53:43;;;;;;;13.90;9.00;;;;;;;4.21;96.84;99929.66;107563;1255;60397;-40
2023/12/18 00:56:11;;;;;;;11.90;8.70;;;;;;;4.25;96.93;99925.64;107572;1252;60043;-39
2023/12/18 00:58:39;;;;;;;12.60;9.30;;;;;;;4.30;96.53;99924.33;107624;1254;74171;-40
2023/12/18 01:01:06;;;;;;;14.90;9.70;;;;;;;4.30;96.67;99920.58;107588;1258;66505;-40
2023/12/18 01:03:34;;;;;;;15.60;10.10;;;;;;;4.27;96.83;99918.80;107580;1257;72955;-40
2023/12/18 01:06:02;;;;;;;16.40;10.50;;;;;;;4.27;96.78;99906.25;107597;1254;61731;-40
2023/12/18 01:08:30;;;;;;;15.80;10.20;;;;;;;4.31;96.63;99909.97;107588;1254;60507;-40
2023/12/18 01:10:58;;;;;;;15.60;10.40;;;;;;;4.33;96.79;99909.38;107645;1253;73925;-40
2023/12/18 01:13:25;;;;;;;16.50;10.50;;;;;;;4.32;96.97;99899.90;107603;1255;67625;-40
2023/12/18 01:15:53;;;;;;;17.20;11.00;;;;;;;4.24;97.18;99871.23;107590;1254;71819;-39
2023/12/18 01:18:20;;;;;;;15.60;10.30;;;;;;;4.33;97.06;99873.96;107546;1255;61713;-41
2023/12/18 01:20:48;;;;;;;16.90;11.20;;;;;;;4.37;96.88;99873.16;107609;1255;60050;-40
2023/12/18 01:23:16;;;;;;;14.30;11.10;;;;;;;4.37;96.92;99870.31;107638;1260;72643;-40
2023/12/18 01:25:43;;;;;;;16.80;10.50;;;;;;;4.29;97.27;99855.39;107618;1256;67671;-40
2023/12/18 01:28:11;;;;;;;15.50;10.50;;;;;;;4.37;97.12;99856.27;107577;1255;71430;-40
2023/12/18 01:30:38;;;;;;;15.40;10.10;;;;;;;4.42;96.93;99852.85;107588;1257;61798;-40
2023/12/18 01:33:06;;;;;;;16.00;10.30;;;;;;;4.45;96.69;99847.31;107614;1252;60414;-40
2023/12/18 01:35:34;;;;;;;15.00;10.40;;;;;;;4.41;96.71;99847.28;107629;1254;73843;-40
2023/12/18 01:38:02;;;;;;;16.50;10.70;;;;;;;4.37;96.53;99853.36;107622;1253;66630;-40
2023/12/18 01:40:29;;;;;;;13.00;9.00;;;;;;;4.37;96.02;99843.79;107601;1254;72663;-40
2023/12/18 01:42:57;;;;;;;14.40;10.30;;;;;;;4.33;95.72;99824.54;107623;1254;60814;-40
2023/12/18 01:45:24;;;;;;;18.10;9.80;;;;;;;4.39;95.56;99825.40;107619;1254;60497;-40
2023/12/18 01:47:53;;;;;;;17.30;11.00;;;;;;;4.34;95.68;99825.46;107577;1254;73833;-40
2023/12/18 01:50:20;;;;;;;14.80;9.80;;;;;;;4.31;95.93;99831.73;107579;1256;67657;-40
2023/12/18 01:52:48;;;;;;;13.60;9.70;;;;;;;4.32;95.40;99828.63;107587;1254;70540;-40
2023/12/18 01:55:15;;;;;;;15.20;11.00;;;;;;;4.37;94.96;99839.45;107608;1257;60575;-40
2023/12/18 01:57:43;;;;;;;15.60;10.40;;;;;;;4.35;94.94;99848.27;107517;1254;60344;-40
2023/12/18 02:00:12;;;;;;;15.90;11.20;;;;;;;4.30;95.24;99866.20;107627;1252;73851;-40
2023/12/18 02:02:40;;;;;;;13.70;9.90;;;;;;;4.30;95.84;99860.20;107631;1253;66604;-40
2023/12/18 02:05:07;;;;;;;15.00;9.80;;;;;;;4.36;96.31;99853.39;107476;1258;72734;-40
2023/12/18 02:07:35;;;;;;;13.70;9.70;;;;;;;4.42;96.45;99849.58;107593;1255;60481;-40
2023/12/18 02:10:04;;;;;;;15.50;10.90;;;;;;;4.45;96.80;99834.66;107489;1253;60317;-40
2023/12/18 02:12:31;;;;;;;14.20;10.00;;;;;;;4.44;97.36;99830.38;107617;1254;73834;-40
2023/12/18 02:14:59;;;;;;;14.80;9.70;;;;;;;4.48;97.40;99826.36;107606;1255;67885;-40
2023/12/18 02:17:26;;;;;;;13.80;9.80;;;;;;;4.54;97.21;99830.80;107613;1254;72628;-40
2023/12/18 02:20:07;;;;;;;15.20;10.70;;;;;;;4.58;96.88;99828.63;107644;1254;60416;-40
2023/12/18 02:22:44;;;;;;;15.50;10.80;;;;;;;4.53;96.96;99828.09;107639;1257;59563;-40
2023/12/18 02:25:11;;;;;;;14.70;9.80;;;;;;;4.51;97.05;99833.61;107754;1251;73835;-40
2023/12/18 02:27:39;;;;;;;14.60;10.00;;;;;;;4.54;96.89;99845.35;107724;1251;66357;-40
2023/12/18 02:30:07;;;;;;;14.90;10.20;;;;;;;4.55;96.65;99841.78;107549;1254;72915;-40
2023/12/18 02:32:35;;;;;;;19.00;11.50;;;;;;;4.54;96.73;99847.56;107735;1254;60417;-40
2023/12/18 02:35:04;;;;;;;15.50;10.40;;;;;;;4.50;96.98;99841.82;107748;1251;60373;-40
2023/12/18 02:37:32;;;;;;;16.00;10.40;;;;;;;4.50;96.97;99841.15;107749;1251;73930;-40
2023/12/18 02:39:59;;;;;;;16.00;10.10;;;;;;;4.53;96.75;99844.52;107729;1251;67844;-40
2023/12/18 02:42:27;;;;;;;16.90;11.20;;;;;;;4.53;96.67;99842.91;107707;1256;72693;-40
2023/12/18 02:44:56;;;;;;;17.90;11.90;;;;;;;4.49;96.87;99847.69;107703;1251;60325;-41
2023/12/18 02:47:23;;;;;;;18.50;11.60;;;;;;;4.45;97.40;99850.96;107737;1251;60299;-41
2023/12/18 02:49:51;;;;;;;15.80;10.70;;;;;;;4.48;97.13;99843.85;107718;1254;72902;-41
2023/12/18 02:52:19;;;;;;;16.50;10.30;;;;;;;4.51;96.93;99841.19;107730;1251;66260;-41
2023/12/18 02:54:46;;;;;;;16.10;11.30;;;;;;;4.51;96.90;99846.95;107700;1251;72700;-40
2023/12/18 02:57:14;;;;;;;17.30;11.60;;;;;;;4.46;97.07;99841.70;107701;1254;60459;-41
2023/12/18 02:59:41;;;;;;;19.30;11.70;;;;;;;4.45;97.22;99844.52;107550;1251;60016;-40
2023/12/18 03:02:09;;;;;;;16.60;11.20;;;;;;;4.50;97.04;99847.95;107723;1251;73893;-41
2023/12/18 03:04:40;;;;;;;16.80;11.90;;;;;;;4.52;97.14;99854.65;107736;1251;66241;-41
2023/12/18 03:07:08;;;;;;;15.80;11.30;;;;;;;4.47;97.19;99852.95;107781;1256;72654;-41
2023/12/18 03:09:36;;;;;;;16.80;12.30;;;;;;;4.45;96.97;99854.71;107721;1251;60844;-41
2023/12/18 03:12:04;;;;;;;16.50;11.30;;;;;;;4.46;96.98;99855.91;107758;1251;60402;-40
2023/12/18 03:14:32;;;;;;;17.40;12.20;;;;;;;4.49;96.80;99850.77;107726;1251;73930;-40
2023/12/18 03:16:59;;;;;;;19.60;13.30;;;;;;;4.45;97.02;99851.45;107707;1251;66556;-41
2023/12/18 03:19:27;;;;;;;20.60;12.80;;;;;;;4.41;97.21;99846.48;107730;1251;71682;-40
2023/12/18 03:21:55;;;;;;;20.00;12.50;;;;;;;4.42;97.17;99844.16;107699;1254;60941;-40
2023/12/18 03:24:22;;;;;;;20.70;13.30;;;;;;;4.45;96.96;99842.89;107724;1251;60290;-40
2023/12/18 03:26:50;;;;;;;19.30;13.50;;;;;;;4.46;97.12;99836.07;107748;1251;73852;-40
2023/12/18 03:29:18;;;;;;;21.10;13.90;;;;;;;4.42;97.47;99839.59;107720;1251;66616;-41
2023/12/18 03:31:45;;;;;;;18.80;12.60;;;;;;;4.43;96.99;99838.49;107738;1251;72628;-41
2023/12/18 03:34:13;;;;;;;21.20;14.50;;;;;;;4.47;96.98;99834.70;107726;1253;60934;-41
2023/12/18 03:36:40;;;;;;;23.00;14.40;;;;;;;4.46;96.97;99827.83;107725;1251;60000;-41
2023/12/18 03:39:08;;;;;;;20.10;13.40;;;;;;;4.43;97.16;99822.83;107689;1251;73828;-41
2023/12/18 03:41:36;;;;;;;23.50;14.30;;;;;;;4.43;96.93;99816.64;107699;1251;67567;-41
2023/12/18 03:44:03;;;;;;;21.60;14.10;;;;;;;4.39;96.68;99803.59;107725;1254;72722;-40
2023/12/18 03:46:31;;;;;;;22.10;15.40;;;;;;;4.46;96.62;99808.58;107691;1256;60459;-41
2023/12/18 03:48:58;;;;;;;24.20;15.20;;;;;;;4.41;96.87;99803.11;107752;1251;60189;-41
2023/12/18 03:51:26;;;;;;;21.90;14.80;;;;;;;4.39;97.19;99798.02;107794;1251;73874;-41
2023/12/18 03:53:54;;;;;;;22.80;13.70;;;;;;;4.32;97.03;99776.56;107745;1251;67613;-41
2023/12/18 03:56:22;;;;;;;24.00;15.20;;;;;;;4.38;96.85;99779.00;107754;1254;72697;-41
2023/12/18 03:58:49;;;;;;;22.10;14.90;;;;;;;4.44;97.01;99786.14;107709;1251;60558;-41
2023/12/18 04:01:17;;;;;;;23.00;14.60;;;;;;;4.40;97.08;99790.48;107725;1251;59190;-41
2023/12/18 04:03:44;;;;;;;23.80;15.10;;;;;;;4.40;97.13;99785.04;107713;1251;73677;-41
2023/12/18 04:06:12;;;;;;;24.00;15.30;;;;;;;4.44;96.74;99781.02;107700;1251;67568;-41
2023/12/18 04:08:40;;;;;;;24.70;15.90;;;;;;;4.43;96.48;99778.42;107728;1251;72648;-41
2023/12/18 04:11:16;;;;;;;23.20;15.00;;;;;;;4.36;96.61;99777.10;107712;1251;60349;-41
2023/12/18 04:13:44;;;;;;;23.10;15.10;;;;;;;4.32;96.72;99792.23;107711;1256;60308;-41
2023/12/18 04:16:11;;;;;;;24.20;15.50;;;;;;;4.34;96.97;99814.35;107692;1251;73801;-41
2023/12/18 04:18:39;;;;;;;25.40;16.50;;;;;;;4.35;96.90;99799.04;107716;1251;66408;-41
2023/12/18 04:21:07;;;;;;;29.20;17.30;;;;;;;4.31;97.17;99792.19;106949;1256;1003509;-41
2023/12/18 04:23:34;;;;;;;28.90;17.90;;;;;;;4.29;97.34;99778.41;107678;1251;61663;-41
2023/12/18 04:26:02;;;;;;;23.80;16.10;;;;;;;4.34;97.03;99781.34;107763;1256;59244;-41
2023/12/18 04:28:30;;;;;;;24.50;16.10;;;;;;;4.40;97.03;99798.42;107715;1251;73837;-41
2023/12/18 04:30:57;;;;;;;28.20;17.70;;;;;;;4.39;97.10;99792.65;107786;1257;66605;-41
2023/12/18 04:33:25;;;;;;;28.90;17.00;;;;;;;4.35;97.38;99783.78;107691;1251;72510;-41
2023/12/18 04:35:53;;;;;;;27.60;17.50;;;;;;;4.36;97.16;99794.11;107701;1253;61871;-41
2023/12/18 04:38:20;;;;;;;26.60;17.10;;;;;;;4.38;96.77;99794.17;107728;1251;60348;-41
2023/12/18 04:40:48;;;;;;;29.90;17.60;;;;;;;4.36;96.80;99783.60;107702;1251;72503;-41
2023/12/18 04:43:15;;;;;;;29.00;17.20;;;;;;;4.31;97.15;99760.26;107710;1251;66663;-41
2023/12/18 04:45:43;;;;;;;27.10;16.60;;;;;;;4.31;97.18;99755.14;107702;1254;72645;-40
2023/12/18 04:48:11;;;;;;;24.50;16.00;;;;;;;4.35;97.04;99764.20;107688;1252;61640;-40
2023/12/18 04:50:38;;;;;;;26.40;18.30;;;;;;;4.33;97.09;99764.82;107732;1251;59570;-41
2023/12/18 04:53:06;;;;;;;25.80;17.30;;;;;;;4.29;97.19;99758.27;107718;1251;72510;-41
2023/12/18 04:55:33;;;;;;;25.00;16.80;;;;;;;4.29;97.27;99776.52;107711;1251;66779;-41
2023/12/18 04:58:01;;;;;;;27.00;18.10;;;;;;;4.33;97.03;99768.58;107696;1251;71465;-40
2023/12/18 05:00:28;;;;;;;27.90;18.60;;;;;;;4.36;96.95;99770.23;107703;1251;60319;-41
2023/12/18 05:02:56;;;;;;;29.60;19.30;;;;;;;4.30;97.15;99759.38;107765;1251;60530;-41
2023/12/18 05:05:25;;;;;;;31.10;20.30;;;;;;;4.27;97.26;99767.35;107740;1251;73828;-41
2023/12/18 05:07:53;;;;;;;28.40;18.50;;;;;;;4.30;97.19;99781.98;107737;1256;67557;-40
2023/12/18 05:10:20;;;;;;;29.90;18.90;;;;;;;4.34;97.08;99793.91;107722;1251;72651;-41
2023/12/18 05:12:48;;;;;;;31.00;19.50;;;;;;;4.33;97.30;99798.33;107698;1253;60440;-41
2023/12/18 05:15:15;;;;;;;31.00;20.10;;;;;;;4.30;97.39;99802.76;107737;1257;60300;-41
2023/12/18 05:17:43;;;;;;;29.20;19.00;;;;;;;4.31;97.10;99802.98;107694;1251;74263;-40
2023/12/18 05:20:12;;;;;;;30.00;20.00;;;;;;;4.34;96.83;99805.77;107714;1251;67566;-40
2023/12/18 05:22:40;;;;;;;33.40;21.50;;;;;;;4.33;96.80;99805.78;107735;1251;72659;-40
2023/12/18 05:25:08;;;;;;;33.40;20.90;;;;;;;4.28;97.10;99800.31;107704;1254;62022;-41
2023/12/18 05:27:35;;;;;;;32.80;19.30;;;;;;;4.30;97.18;99795.80;107726;1251;60511;-42
2023/12/18 05:30:04;;;;;;;33.80;19.60;;;;;;;4.34;96.92;99792.81;107717;1251;73833;-40
2023/12/18 05:32:32;;;;;;;33.20;21.80;;;;;;;4.34;96.89;99789.92;107780;1251;68072;-41
2023/12/18 05:34:59;;;;;;;34.30;21.70;;;;;;;4.29;96.95;99786.34;107729;1254;72645;-41
2023/12/18 05:37:27;;;;;;;31.80;21.10;;;;;;;4.32;96.89;99784.48;107683;1254;60577;-41
2023/12/18 05:39:55;;;;;;;35.40;22.30;;;;;;;4.35;96.45;99788.62;107692;1251;115593;-41
2023/12/18 05:44:44;;;;;;;41.20;24.00;;;;;;;4.29;96.54;99781.73;104330;1289;600950;-40
2023/12/18 05:47:11;;;;;;;37.10;22.20;;;;;;;4.27;96.33;99775.34;106557;1267;60960;-40
2023/12/18 05:49:39;;;;;;;36.20;24.30;;;;;;;4.31;96.04;99778.77;106600;1266;59615;-40
2023/12/18 05:52:06;;;;;;;35.60;22.90;;;;;;;4.29;96.21;99773.08;106588;1267;72218;-40
2023/12/18 05:54:34;;;;;;;40.90;24.60;;;;;;;4.24;96.31;99772.95;106551;1269;67898;-40
2023/12/18 05:57:02;;;;;;;36.60;23.50;;;;;;;4.24;96.06;99773.91;106564;1267;72659;-40
2023/12/18 05:59:29;;;;;;;35.70;24.10;;;;;;;4.27;95.98;99770.19;106522;1267;133829;-40
2023/12/18 06:01:57;;;;;;;43.10;26.00;;;;;;;4.24;95.98;99771.05;107228;1257;59285;-40
2023/12/18 06:04:24;;;;;;;37.60;25.00;;;;;;;4.19;96.28;99771.57;107200;1257;72269;-40
2023/12/18 06:06:52;;;;;;;37.30;24.20;;;;;;;4.23;96.23;99773.72;107266;1257;67570;-40
2023/12/18 06:09:20;;;;;;;35.10;23.40;;;;;;;4.28;95.94;99772.78;107297;1262;72670;-40
2023/12/18 06:11:48;;;;;;;38.80;25.00;;;;;;;4.28;95.73;99768.98;107202;1257;60138;-40
2023/12/18 06:14:15;;;;;;;37.10;23.30;;;;;;;4.25;95.92;99774.92;107214;1258;60095;-40
2023/12/18 06:16:43;;;;;;;40.80;24.40;;;;;;;4.26;95.82;99771.92;107245;1262;71050;-40
2023/12/18 06:19:11;;;;;;;38.00;24.20;;;;;;;4.30;95.54;99769.03;107294;1257;67892;-40
2023/12/18 06:21:40;;;;;;;37.10;24.40;;;;;;;4.30;95.56;99767.17;107306;1257;73147;-40
2023/12/18 06:24:07;;;;;;;40.60;23.70;;;;;;;4.26;95.56;99769.43;107257;1263;61681;-40
2023/12/18 06:26:35;;;;;;;36.40;23.60;;;;;;;4.28;95.54;99767.38;107273;1262;60292;-40
2023/12/18 06:29:03;;;;;;;34.50;22.70;;;;;;;4.32;95.22;99766.92;107248;1258;70803;-40
2023/12/18 06:31:30;;;;;;;42.40;25.40;;;;;;;4.33;95.19;99767.13;107206;1256;67171;-40
2023/12/18 06:33:58;;;;;;;38.30;24.00;;;;;;;4.29;95.12;99767.71;107243;1261;73222;-40
2023/12/18 06:36:26;;;;;;;37.90;23.50;;;;;;;4.31;94.78;99766.23;107254;1263;60852;-40
2023/12/18 06:38:53;;;;;;;37.10;23.80;;;;;;;4.35;94.52;99762.91;107221;1263;60033;-40
2023/12/18 06:41:21;;;;;;;37.10;24.10;;;;;;;4.35;94.41;99760.92;107243;1257;73063;-40
2023/12/18 06:43:49;;;;;;;40.20;24.60;;;;;;;4.32;94.41;99762.10;107264;1257;67661;-40
2023/12/18 06:46:16;;;;;;;36.80;22.60;;;;;;;4.31;94.30;99754.67;107208;1257;72662;-40
2023/12/18 06:48:44;;;;;;;35.70;23.70;;;;;;;4.34;93.97;99752.09;107264;1262;60389;-40
2023/12/18 06:51:12;;;;;;;36.30;23.70;;;;;;;4.34;93.93;99751.29;107270;1257;60045;-40
2023/12/18 06:53:39;;;;;;;36.90;24.60;;;;;;;4.28;93.95;99748.70;107294;1257;71971;-40
2023/12/18 06:56:08;;;;;;;37.50;23.00;;;;;;;4.24;94.16;99751.48;107221;1258;67556;-40
2023/12/18 06:58:36;;;;;;;37.20;23.30;;;;;;;4.28;94.14;99749.89;107261;1263;72708;-40
2023/12/18 07:01:03;;;;;;;35.90;23.60;;;;;;;4.33;93.94;99751.46;107251;1257;60068;-40
2023/12/18 07:03:31;;;;;;;40.10;25.60;;;;;;;4.32;94.18;99746.76;107265;1258;59526;-40
2023/12/18 07:05:59;;;;;;;41.10;24.70;;;;;;;4.30;94.39;99744.36;107252;1257;73087;-40
2023/12/18 07:08:29;;;;;;;35.90;24.10;;;;;;;4.31;94.25;99747.00;107267;1263;67947;-40
2023/12/18 07:10:57;;;;;;;39.20;24.80;;;;;;;4.35;93.85;99742.88;107279;1262;72710;-41
2023/12/18 07:13:25;;;;;;;41.60;26.00;;;;;;;4.34;93.79;99748.33;107278;1258;59438;-41
2023/12/18 07:15:52;;;;;;;38.30;24.70;;;;;;;4.30;94.16;99748.48;107239;1262;59582;-40
2023/12/18 07:18:20;;;;;;;40.00;23.70;;;;;;;4.30;94.10;99756.95;107253;1263;73367;-40
2023/12/18 07:20:48;;;;;;;37.70;23.70;;;;;;;4.36;93.95;99759.11;107252;1257;66111;-40
2023/12/18 07:23:15;;;;;;;36.40;23.30;;;;;;;4.39;93.82;99765.11;107220;1257;71402;-40
2023/12/18 07:25:43;;;;;;;38.10;24.80;;;;;;;4.37;94.04;99769.08;107211;1260;60406;-40
2023/12/18 07:28:10;;;;;;;39.90;24.90;;;;;;;4.36;94.18;99771.67;107232;1262;59495;-41
2023/12/18 07:30:38;;;;;;;38.00;25.30;;;;;;;4.42;93.81;99774.75;107190;1258;71776;-40
2023/12/18 07:33:07;;;;;;;38.30;24.90;;;;;;;4.48;93.70;99775.29;107251;1263;68108;-41
2023/12/18 07:35:35;;;;;;;42.10;27.00;;;;;;;4.48;93.67;99779.42;107285;1261;72665;-40
2023/12/18 07:38:02;;;;;;;41.30;24.80;;;;;;;4.45;93.67;99784.11;107205;1257;61955;-40
2023/12/18 07:40:30;;;;;;;42.40;26.50;;;;;;;4.49;93.56;99784.65;107234;1257;59918;-41
2023/12/18 07:42:57;;;;;;;45.40;27.10;;;;;;;4.55;93.15;99784.39;107236;1263;73074;-41
2023/12/18 07:45:25;;;;;;;43.40;26.60;;;;;;;4.54;93.07;99782.52;107199;1258;66443;-40
2023/12/18 07:47:53;;;;;;;43.90;26.80;;;;;;;4.51;93.17;99785.57;107161;1257;72711;-41
2023/12/18 07:50:20;;;;;;;46.00;28.20;;;;;;;4.49;92.99;99781.64;107174;1257;60992;-41
2023/12/18 07:52:48;;;;;;;45.30;27.50;;;;;;;4.53;92.68;99784.28;107211;1257;59529;-40
2023/12/18 07:55:15;;;;;;;44.30;27.10;;;;;;;4.54;92.73;99783.94;107220;1258;73035;-41
2023/12/18 07:57:43;;;;;;;48.30;29.20;;;;;;;4.50;92.91;99784.09;107157;1263;67646;-41
2023/12/18 08:00:11;;;;;;;46.40;28.10;;;;;;;4.46;93.04;99785.33;107206;1258;72687;-41
2023/12/18 08:02:39;;;;;;;46.30;27.40;;;;;;;4.49;92.92;99790.08;107215;1258;60874;-41
2023/12/18 08:05:07;;;;;;;44.00;27.10;;;;;;;4.53;92.84;99783.97;107188;1263;60018;-41
2023/12/18 08:07:36;;;;;;;45.90;27.30;;;;;;;4.45;92.96;99775.31;107206;1258;71760;-40
2023/12/18 08:10:05;;;;;;;40.60;25.50;;;;;;;4.49;92.86;99790.89;107187;1257;66616;-40
2023/12/18 08:12:33;;;;;;;46.90;27.30;;;;;;;4.51;92.86;99789.39;107240;1257;71364;-40
2023/12/18 08:15:02;;;;;;;47.10;27.90;;;;;;;4.56;92.71;99786.58;107121;1262;60435;-40
2023/12/18 08:17:39;;;;;;;46.40;27.10;;;;;;;4.56;92.60;99789.02;107277;1257;59317;-40
2023/12/18 08:20:07;;;;;;;46.00;28.50;;;;;;;4.52;92.79;99781.09;107175;1257;73056;-40
2023/12/18 08:22:35;;;;;;;45.80;27.50;;;;;;;4.51;92.86;99785.03;107285;1263;68884;-40
2023/12/18 08:25:03;;;;;;;41.00;25.20;;;;;;;4.56;92.85;99780.69;107144;1259;72455;-41
2023/12/18 08:27:32;;;;;;;40.30;25.80;;;;;;;4.60;92.53;99779.96;107190;1258;59442;-40
2023/12/18 08:30:02;;;;;;;42.50;26.90;;;;;;;4.60;92.72;99780.20;107251;1262;59303;-40
2023/12/18 08:32:30;;;;;;;;;;;;;;;4.59;92.74;99782.73;107187;1263;73044;-40
2023/12/18 08:35:00;;;;;;;39.00;24.30;;;;;;;4.62;92.55;99785.27;107164;1260;67968;-40
2023/12/18 08:37:28;;;;;;;41.30;24.50;;;;;;;4.67;92.37;99778.36;107204;1262;72713;-41
2023/12/18 08:39:55;;;;;;;42.10;25.90;;;;;;;4.66;92.15;99783.70;107158;1261;59653;-41
2023/12/18 08:42:24;;;;;;;45.50;25.50;;;;;;;4.61;92.14;99788.08;107135;1258;59614;-41
2023/12/18 08:44:53;;;;;;;34.20;23.20;;;;;;;4.54;92.10;99776.13;107167;1257;73028;-40
2023/12/18 08:47:24;;;;;;;38.20;23.70;;;;;;;4.67;91.85;99787.29;107198;1257;69142;-40
2023/12/18 08:49:52;;;;;;;38.40;24.50;;;;;;;4.64;91.92;99785.43;107229;1263;73193;-40
2023/12/18 08:52:20;;;;;;;37.80;23.30;;;;;;;4.62;92.07;99787.14;107245;1258;60062;-41
2023/12/18 08:54:47;;;;;;;34.70;22.40;;;;;;;4.62;91.98;99787.80;107207;1257;59616;-41
2023/12/18 08:57:15;;;;;;;36.00;22.80;;;;;;;4.67;91.91;99781.59;107155;1257;73083;-41
2023/12/18 08:59:43;;;;;;;34.90;22.70;;;;;;;4.69;91.87;99783.92;107177;1262;67975;-40
2023/12/18 09:02:10;;;;;;;34.70;22.70;;;;;;;4.66;91.99;99778.72;107129;1263;74909;-41
2023/12/18 09:04:38;;;;;;;36.40;22.10;;;;;;;4.64;92.18;99780.11;107162;1257;61118;-41
2023/12/18 09:07:06;;;;;;;31.80;21.50;;;;;;;4.68;91.96;99775.76;107136;1258;60034;-40
2023/12/18 09:09:36;;;;;;;34.70;21.30;;;;;;;4.73;91.74;99773.16;107191;1258;71939;-40
2023/12/18 09:12:04;;;;;;;33.00;21.90;;;;;;;4.73;91.88;99766.33;107197;1263;67566;-40
2023/12/18 09:14:32;;;;;;;33.90;21.50;;;;;;;4.71;92.06;99771.54;107032;1260;74025;-40
2023/12/18 09:16:59;;;;;;;32.30;21.10;;;;;;;4.72;91.94;99763.99;106414;1263;1003073;-40
2023/12/18 09:19:27;;;;;;;30.50;20.40;;;;;;;4.76;91.61;99766.72;107203;1260;60009;-41
2023/12/18 09:21:55;;;;;;;30.40;20.10;;;;;;;4.79;91.53;99768.61;107156;1260;73054;-40
2023/12/18 09:24:23;;;;;;;30.00;21.10;;;;;;;4.76;91.71;99765.33;107048;1259;66848;-41
2023/12/18 09:26:50;;;;;;;34.00;20.90;;;;;;;4.73;91.91;99760.64;107166;1263;74848;-40
2023/12/18 09:29:18;;;;;;;30.10;19.10;;;;;;;4.75;91.79;99761.34;107164;1259;62062;-40
2023/12/18 09:31:47;;;;;;;28.60;19.60;;;;;;;4.79;91.61;99762.84;107157;1259;60002;-40
2023/12/18 09:34:14;;;;;;;29.20;21.00;;;;;;;4.78;91.82;99764.42;107284;1261;72162;-40
2023/12/18 09:36:43;;;;;;;32.10;20.70;;;;;;;4.75;92.10;99762.88;107173;1259;66752;-40
2023/12/18 09:39:10;;;;;;;30.50;18.70;;;;;;;4.78;92.06;99762.48;107032;1261;70520;-40
2023/12/18 09:41:38;;;;;;;28.50;19.50;;;;;;;4.86;91.79;99762.77;107164;1261;60873;-40
2023/12/18 09:44:06;;;;;;;28.30;19.80;;;;;;;4.86;91.74;99763.71;107175;1263;59611;-40
2023/12/18 09:46:33;;;;;;;34.70;21.20;;;;;;;4.80;91.81;99761.80;107184;1258;73329;-40
2023/12/18 09:49:01;;;;;;;29.00;20.40;;;;;;;4.80;91.90;99761.36;107196;1261;67256;-40
2023/12/18 09:51:28;;;;;;;31.40;19.90;;;;;;;4.87;91.69;99761.35;107151;1264;72679;-40
2023/12/18 09:53:56;;;;;;;31.10;21.20;;;;;;;4.89;91.56;99766.39;107188;1263;60530;-40
2023/12/18 09:56:25;;;;;;;31.00;21.20;;;;;;;4.87;91.74;99769.23;107187;1263;60577;-39
2023/12/18 09:58:54;;;;;;;34.80;21.00;;;;;;;4.87;91.87;99766.66;107036;1264;72896;-40
2023/12/18 10:01:21;;;;;;;29.60;19.70;;;;;;;4.93;91.73;99769.86;107015;1261;66435;-40
2023/12/18 10:03:49;;;;;;;28.60;19.90;;;;;;;4.98;91.42;99769.50;106923;1261;72726;-40
2023/12/18 10:06:17;;;;;;;31.30;20.50;;;;;;;4.98;91.45;99767.84;107133;1261;59369;-41
2023/12/18 10:08:48;;;;;;;32.40;20.00;;;;;;;4.97;91.52;99766.53;107174;1259;61118;-41
2023/12/18 10:11:24;;;;;;;31.90;19.20;;;;;;;4.99;91.56;99762.02;107142;1260;74142;-41
2023/12/18 10:13:53;;;;;;;28.40;18.60;;;;;;;5.05;91.23;99761.08;107091;1260;66756;-41
2023/12/18 10:16:22;;;;;;;30.80;20.30;;;;;;;5.05;91.12;99758.71;107179;1261;72094;-41
2023/12/18 10:18:50;;;;;;;29.90;18.50;;;;;;;5.02;91.38;99753.82;107000;1265;60475;-41
2023/12/18 10:21:25;;;;;;;27.50;18.00;;;;;;;5.02;91.34;99756.44;107100;1260;60949;-41
2023/12/18 10:23:53;;;;;;;26.00;17.50;;;;;;;5.05;91.19;99753.28;107049;1258;74024;-40
2023/12/18 10:26:21;;;;;;;29.60;19.90;;;;;;;5.06;91.36;99754.52;107109;1260;68366;-40
2023/12/18 10:28:51;;;;;;;29.40;19.90;;;;;;;5.02;91.69;99755.43;107164;1261;72326;-41
2023/12/18 10:31:19;;;;;;;29.70;18.60;;;;;;;5.02;92.05;99750.27;107157;1260;61245;-40
2023/12/18 10:33:46;;;;;;;25.90;17.20;;;;;;;5.08;91.90;99748.86;107242;1260;60950;-40
2023/12/18 10:36:15;;;;;;;21.80;16.30;;;;;;;5.15;91.72;99746.22;107164;1260;73184;-39
2023/12/18 10:38:47;;;;;;;25.20;17.20;;;;;;;5.16;91.70;99752.64;107228;1261;66348;-40
2023/12/18 10:41:16;;;;;;;29.30;17.20;;;;;;;5.15;91.74;99748.42;107215;1260;73109;-39
2023/12/18 10:43:43;;;;;;;24.30;16.60;;;;;;;5.20;91.79;99745.43;107128;1259;62152;-41
2023/12/18 10:46:11;;;;;;;23.40;16.40;;;;;;;5.29;91.58;99747.70;107210;1260;60496;-40
2023/12/18 10:48:39;;;;;;;24.60;16.40;;;;;;;5.30;91.34;99745.63;107040;1261;76068;-41
2023/12/18 10:51:07;;;;;;;23.90;16.80;;;;;;;5.25;91.36;99748.77;106985;1260;69909;-41
2023/12/18 10:53:37;;;;;;;23.60;17.10;;;;;;;5.19;91.51;99743.56;106954;1260;72675;-40
2023/12/18 10:56:05;;;;;;;17.10;11.90;;;;;;;5.34;91.46;99755.89;107062;1259;62652;-41
2023/12/18 10:58:34;;;;;;;23.60;15.80;;;;;;;5.40;91.42;99751.56;107251;1263;60419;-40
2023/12/18 11:01:04;;;;;;;21.70;15.80;;;;;;;5.40;91.38;99753.11;107167;1260;74004;-41
2023/12/18 11:03:33;;;;;;;21.00;14.90;;;;;;;5.34;91.27;99753.23;107021;1264;67948;-41
2023/12/18 11:06:00;;;;;;;22.50;14.50;;;;;;;5.35;91.40;99756.04;107174;1260;72650;-40
2023/12/18 11:08:28;;;;;;;21.40;15.20;;;;;;;5.42;91.40;99755.58;107152;1260;60824;-41
2023/12/18 11:10:58;;;;;;;23.80;15.70;;;;;;;5.43;91.35;99757.90;107073;1261;60475;-41
2023/12/18 11:13:31;;;;;;;21.70;15.60;;;;;;;5.42;91.71;99761.80;107017;1263;76024;-41
2023/12/18 11:16:27;;;;;;;25.20;15.30;;;;;;;5.41;91.62;99758.59;107232;1260;70169;-40
2023/12/18 11:19:27;;;;;;;19.50;14.40;;;;;;;5.42;91.33;99755.73;107041;1261;72040;-41
2023/12/18 11:21:55;;;;;;;22.70;15.20;;;;;;;5.42;91.60;99760.48;106427;1260;1002853;-41
2023/12/18 11:24:23;;;;;;;21.80;16.00;;;;;;;5.37;91.87;99768.10;107160;1258;59742;-41
2023/12/18 11:26:51;;;;;;;21.30;15.60;;;;;;;5.34;92.18;99767.73;107139;1259;75083;-41